»·PEaware :: N623JB KSBA-KBUR

N623JB :: KSBA-KBUR

FLIGHT INFORMATION

Flight Status: Arrived
Operator: Privately registered:
United States
More flights under this callsign
Pilot: Jonathan B. (32222)
Aircraft: CIRRUS SR-22
(SR22)
More flights by this aircraft type
Origin: KSBA Santa Barbara Mun
United States
Destination: KBUR Bob Hope-Burbank
United States
More flights between these airports :: More routes between these airports
Route:
File this flight plan on PilotEdge
Remarks:
Altitude:
(Current/Filed)
5,500ft
Speed:
(Current/Filed)
140kts
Departed: 11-Nov-20 01:21 PM
Arrived: 11-Nov-20 01:59 PM
Distance/Time
Traveled:
0nm/0:38
Distance/Time
To Go:
Arrived

Flight Plot

Page will automatically refresh every two minutes.


Map Options




Map Legend


Flown Route
Filed Route
Departure Airport
Arrival Airport
Navaid (VOR, NDB)
Fix

Horizontal Profiles

Position Reports

Time Latitude Longitude Heading Altitude Ground
Speed
11-Nov-20 13:03 34.426503 -119.837417 179 17ft 0kts
11-Nov-20 13:04 34.426503 -119.837417 179 17ft 0kts
11-Nov-20 13:05 34.426503 -119.837417 179 17ft 0kts
11-Nov-20 13:06 34.426503 -119.837417 179 17ft 0kts
11-Nov-20 13:07 34.426503 -119.837417 179 17ft 0kts
11-Nov-20 13:08 34.426503 -119.837417 179 17ft 0kts
11-Nov-20 13:09 34.426503 -119.837417 179 17ft 0kts
11-Nov-20 13:10 34.426503 -119.837417 179 17ft 0kts
11-Nov-20 13:11 34.426503 -119.837417 179 17ft 0kts
11-Nov-20 13:12 34.426503 -119.837417 179 17ft 0kts
11-Nov-20 13:13 34.426503 -119.837417 179 17ft 0kts
11-Nov-20 13:14 34.426503 -119.837417 179 17ft 0kts
11-Nov-20 13:15 34.427742 -119.838682 345 18ft 15kts
11-Nov-20 13:16 34.430675 -119.839841 252 11ft 0kts
11-Nov-20 13:17 34.430675 -119.839841 252 11ft 0kts
11-Nov-20 13:18 34.430675 -119.839841 252 11ft 0kts
11-Nov-20 13:19 34.430675 -119.839841 252 11ft 0kts
11-Nov-20 13:20 34.421158 -119.837370 166 87ft 108kts
11-Nov-20 13:21 34.386300 -119.824686 164 751ft 132kts
11-Nov-20 13:22 34.351103 -119.812193 164 1420ft 137kts
11-Nov-20 13:23 34.311410 -119.798703 165 1495ft 153kts
11-Nov-20 13:24 34.297550 -119.759782 77 2432ft 109kts
11-Nov-20 13:25 34.303175 -119.724213 82 3901ft 108kts
11-Nov-20 13:26 34.307192 -119.680446 84 4474ft 157kts
11-Nov-20 13:27 34.310838 -119.631254 84 4488ft 141kts
11-Nov-20 13:28 34.314334 -119.584125 84 4499ft 140kts
11-Nov-20 13:29 34.333982 -119.543983 50 4501ft 142kts
11-Nov-20 13:30 34.358254 -119.505668 53 4499ft 143kts
11-Nov-20 13:31 34.370230 -119.461582 100 4500ft 143kts
11-Nov-20 13:32 34.363115 -119.413771 100 4499ft 144kts
11-Nov-20 13:33 34.355911 -119.365961 100 4499ft 144kts
11-Nov-20 13:34 34.348682 -119.318255 100 4495ft 143kts
11-Nov-20 13:35 34.341490 -119.270713 100 4502ft 143kts
11-Nov-20 13:36 34.334304 -119.223147 100 4502ft 144kts
11-Nov-20 13:37 34.327045 -119.175355 100 4498ft 143kts
11-Nov-20 13:38 34.319818 -119.127715 100 4499ft 143kts
11-Nov-20 13:39 34.312598 -119.080202 100 4503ft 144kts
11-Nov-20 13:40 34.305311 -119.032462 100 4502ft 144kts
11-Nov-20 13:41 34.298019 -118.984796 100 4498ft 144kts
11-Nov-20 13:42 34.290722 -118.937189 100 4499ft 144kts
11-Nov-20 13:43 34.283777 -118.889425 99 4500ft 144kts
11-Nov-20 13:44 34.277040 -118.841544 100 4503ft 147kts
11-Nov-20 13:45 34.263805 -118.793936 111 4498ft 150kts
11-Nov-20 13:46 34.249308 -118.746843 110 4501ft 150kts
11-Nov-20 13:47 34.238231 -118.698208 93 4498ft 151kts
11-Nov-20 13:48 34.237409 -118.648711 91 4497ft 150kts
11-Nov-20 13:49 34.236050 -118.598275 92 4500ft 150kts
11-Nov-20 13:50 34.234187 -118.547699 92 4500ft 150kts
11-Nov-20 13:51 34.231931 -118.497349 103 4498ft 146kts
11-Nov-20 13:52 34.212701 -118.461916 126 4502ft 121kts
11-Nov-20 13:53 34.193376 -118.427706 123 4429ft 124kts
11-Nov-20 13:54 34.181494 -118.388222 70 3344ft 139kts
11-Nov-20 13:55 34.206533 -118.367222 329 2016ft 120kts
11-Nov-20 13:56 34.233496 -118.373358 86 1507ft 93kts
11-Nov-20 13:57 34.212595 -118.360563 167 902ft 80kts
11-Nov-20 13:58 34.202801 -118.358756 249 729ft 0kts
11-Nov-20 13:59 34.202801 -118.358756 249 729ft 0kts
11-Nov-20 14:00 34.201233 -118.358541 165 724ft 10kts
11-Nov-20 14:01 34.200067 -118.358887 66 720ft 0kts
11-Nov-20 14:02 0.000408 0.013975 0 3ft 0kts
11-Nov-20 14:03 0.000408 0.013975 0 3ft 0kts
11-Nov-20 14:04 0.000408 0.013975 0 3ft 0kts
11-Nov-20 14:05 34.426503 -119.837417 179 17ft 0kts
11-Nov-20 14:06 34.426503 -119.837417 179 17ft 0kts
11-Nov-20 14:07 34.426503 -119.837417 179 17ft 0kts
11-Nov-20 14:08 34.426503 -119.837417 179 17ft 0kts
11-Nov-20 14:09 34.426503 -119.837417 179 17ft 0kts
11-Nov-20 14:10 34.426503 -119.837417 179 17ft 0kts
11-Nov-20 14:11 34.426503 -119.837417 179 17ft 0kts
11-Nov-20 14:12 34.427033 -119.838450 348 18ft 7kts

Navigation Log

Ident Type
Flight plan parsing failed, navigation log unavailable